Time;durP1;ratioP1;P1;durP2;ratioP2;P2;SDS_P1;SDS_P2;PMS_P1;PMS_P2;Temp;Humidity;BMP_temperature;BMP_pressure;BME280_temperature;BME280_humidity;BME280_pressure;Samples;Min_cycle;Max_cycle;Signal;HPM_P1;HPM_P2
2023/03/13 00:02:01;;;;;;;26.55;5.57;;;8.40;99.90;;;;;;5046773;28;20521;-86
2023/03/13 00:04:27;;;;;;;24.38;5.10;;;8.40;99.90;;;;;;5031117;28;20039;-86
2023/03/13 00:06:53;;;;;;;24.15;5.35;;;8.40;99.90;;;;;;5048262;28;20401;-85
2023/03/13 00:09:18;;;;;;;31.52;6.22;;;8.60;99.90;;;;;;5029805;28;20063;-85
2023/03/13 00:11:46;;;;;;;29.83;6.00;;;8.40;99.90;;;;;;5047528;28;20041;-86
2023/03/13 00:14:11;;;;;;;28.17;5.85;;;8.40;99.90;;;;;;5063881;28;20037;-85
2023/03/13 00:16:38;;;;;;;24.33;5.43;;;8.40;99.90;;;;;;5063358;28;20110;-85
2023/03/13 00:19:05;;;;;;;24.98;6.20;;;8.40;99.90;;;;;;5047524;28;20037;-86
2023/03/13 00:21:31;;;;;;;26.17;5.75;;;8.40;99.90;;;;;;5063898;28;20501;-86
2023/03/13 00:23:59;;;;;;;25.08;6.20;;;8.40;99.90;;;;;;5043652;28;20075;-85
2023/03/13 00:26:29;;;;;;;21.92;5.75;;;8.40;99.90;;;;;;5064922;28;20056;-86
2023/03/13 00:28:54;;;;;;;29.45;5.88;;;8.40;99.90;;;;;;5048530;28;20398;-85
2023/03/13 00:31:26;;;;;;;25.65;6.10;;;8.40;99.90;;;;;;5044835;28;20059;-85
2023/03/13 00:33:54;;;;;;;34.10;6.30;;;8.40;99.90;;;;;;5062986;28;20114;-85
2023/03/13 00:36:22;;;;;;;25.42;6.85;;;8.40;99.90;;;;;;5064307;28;20119;-85
2023/03/13 00:38:48;;;;;;;28.27;5.88;;;8.40;99.90;;;;;;5060256;28;20071;-85
2023/03/13 00:41:26;;;;;;;24.42;5.68;;;8.30;99.90;;;;;;5063842;28;20072;-85
2023/03/13 00:43:52;;;;;;;25.10;6.05;;;8.30;99.90;;;;;;5061506;28;20048;-85
2023/03/13 00:46:20;;;;;;;26.00;5.40;;;8.90;99.90;;;;;;5063605;28;20043;-85
2023/03/13 00:48:47;;;;;;;29.00;6.00;;;8.30;99.90;;;;;;5064209;28;20072;-85
2023/03/13 00:51:14;;;;;;;32.40;6.95;;;8.30;99.90;;;;;;5045691;28;20039;-85
2023/03/13 00:53:40;;;;;;;32.05;7.18;;;8.30;99.90;;;;;;5062750;28;20040;-86
2023/03/13 00:56:09;;;;;;;26.13;5.97;;;8.30;99.90;;;;;;5046042;28;20504;-85
2023/03/13 00:58:37;;;;;;;29.73;6.50;;;8.50;99.90;;;;;;5063984;28;20071;-85
2023/03/13 01:01:15;;;;;;;33.28;6.63;;;8.30;99.90;;;;;;5063419;28;20477;-85
2023/03/13 01:03:43;;;;;;;25.80;6.28;;;8.30;99.90;;;;;;5059477;28;20036;-86
2023/03/13 01:06:12;;;;;;;31.70;7.28;;;8.30;99.90;;;;;;5047572;28;20487;-85
2023/03/13 01:08:37;;;;;;;27.38;5.80;;;8.30;99.90;;;;;;5062328;28;20068;-86
2023/03/13 01:11:06;;;;;;;30.20;6.53;;;8.40;99.90;;;;;;5045543;28;20068;-85
2023/03/13 01:13:33;;;;;;;22.25;6.00;;;8.30;99.90;;;;;;5062006;28;20040;-85
2023/03/13 01:16:04;;;;;;;27.15;5.68;;;8.90;99.90;;;;;;5061531;28;20048;-86
2023/03/13 01:18:30;;;;;;;29.27;6.75;;;8.30;99.90;;;;;;5059881;28;20560;-86
2023/03/13 01:20:56;;;;;;;23.83;5.70;;;8.30;99.90;;;;;;5043575;28;20052;-84
2023/03/13 01:23:22;;;;;;;28.73;6.13;;;8.30;99.90;;;;;;5046485;28;20549;-86
2023/03/13 01:25:48;;;;;;;30.50;6.63;;;8.30;99.90;;;;;;5047108;28;20505;-85
2023/03/13 01:28:13;;;;;;;27.90;5.93;;;8.40;99.90;;;;;;5045728;28;20083;-85
2023/03/13 01:30:39;;;;;;;29.40;6.03;;;8.30;99.90;;;;;;5044901;28;20115;-86
2023/03/13 01:33:05;;;;;;;26.00;5.57;;;8.40;99.90;;;;;;5045314;28;20047;-86
2023/03/13 01:35:31;;;;;;;32.00;6.43;;;8.30;99.90;;;;;;5061888;28;20074;-85
2023/03/13 01:37:57;;;;;;;25.45;5.97;;;8.40;99.90;;;;;;5045600;28;20776;-84
2023/03/13 01:40:22;;;;;;;25.00;5.82;;;8.30;99.90;;;;;;5043666;28;20047;-86
2023/03/13 01:42:57;;;;;;;28.52;5.88;;;8.30;99.90;;;;;;5029873;28;20653;-85
2023/03/13 01:45:59;;;;;;;32.30;5.90;;;8.30;99.90;;;;;;5044695;28;20169;-85
2023/03/13 01:49:05;;;;;;;34.78;6.63;;;8.30;99.90;;;;;;5060962;28;20042;-85
2023/03/13 01:51:42;;;;;;;28.15;5.82;;;8.40;99.90;;;;;;5027859;28;20561;-86
2023/03/13 01:54:16;;;;;;;30.98;6.68;;;8.30;99.90;;;;;;5061540;28;20047;-85
2023/03/13 01:56:50;;;;;;;26.98;5.57;;;8.30;99.90;;;;;;5059873;28;20071;-86
2023/03/13 01:59:29;;;;;;;26.35;5.35;;;8.40;99.90;;;;;;5059602;28;20048;-86
2023/03/13 02:01:59;;;;;;;24.25;5.30;;;8.70;99.90;;;;;;5045288;28;20044;-85
2023/03/13 02:04:29;;;;;;;23.27;5.03;;;8.30;99.90;;;;;;5079198;28;20037;-86
2023/03/13 02:07:00;;;;;;;29.40;6.00;;;8.30;99.90;;;;;;5061501;28;20044;-86
2023/03/13 02:09:30;;;;;;;22.70;6.00;;;8.60;99.90;;;;;;5062050;28;20108;-86
2023/03/13 02:12:11;;;;;;;21.27;5.55;;;8.40;99.90;;;;;;5044986;28;20028;-86
2023/03/13 02:14:40;;;;;;;28.25;5.63;;;8.40;99.90;;;;;;5046147;28;20455;-85
2023/03/13 02:17:06;;;;;;;26.55;5.97;;;8.40;99.90;;;;;;5061989;28;20102;-85
2023/03/13 02:19:41;;;;;;;23.90;5.78;;;8.40;99.90;;;;;;5062207;28;20033;-86
2023/03/13 02:22:22;;;;;;;26.08;5.70;;;8.40;99.90;;;;;;5059903;28;20074;-86
2023/03/13 02:25:04;;;;;;;25.73;6.15;;;8.40;99.90;;;;;;5043726;28;20040;-86
2023/03/13 02:27:30;;;;;;;27.27;5.82;;;8.40;99.90;;;;;;5042776;28;20040;-85
2023/03/13 02:29:57;;;;;;;27.20;6.13;;;8.40;99.90;;;;;;5029258;28;20067;-85
2023/03/13 02:32:25;;;;;;;23.35;5.57;;;8.40;99.90;;;;;;5059567;28;20044;-85
2023/03/13 02:34:55;;;;;;;26.17;5.90;;;8.70;99.90;;;;;;5060178;28;20052;-85
2023/03/13 02:37:24;;;;;;;25.75;5.85;;;8.40;99.90;;;;;;5062296;28;20212;-86
2023/03/13 02:39:51;;;;;;;21.90;5.28;;;8.40;99.90;;;;;;5062332;28;20105;-85
2023/03/13 02:42:20;;;;;;;22.02;5.65;;;8.40;99.90;;;;;;5061274;28;20044;-85
2023/03/13 02:44:46;;;;;;;21.40;5.50;;;8.40;99.90;;;;;;5065292;28;20044;-85
2023/03/13 02:47:17;;;;;;;26.85;6.00;;;9.00;99.90;;;;;;5065967;28;20033;-86
2023/03/13 02:49:43;;;;;;;21.60;5.70;;;8.40;99.90;;;;;;5047220;28;20527;-85
2023/03/13 02:52:29;;;;;;;25.25;5.97;;;8.30;99.90;;;;;;5032041;28;20036;-85
2023/03/13 02:54:59;;;;;;;20.58;5.05;;;8.30;99.90;;;;;;5047945;28;20040;-86
2023/03/13 02:57:25;;;;;;;19.20;4.93;;;8.40;99.90;;;;;;5049412;28;20040;-86
2023/03/13 02:59:51;;;;;;;20.15;5.53;;;8.40;99.90;;;;;;5032134;28;20041;-86
2023/03/13 03:02:16;;;;;;;16.58;5.50;;;8.40;99.90;;;;;;5049951;28;20627;-85
2023/03/13 03:04:42;;;;;;;13.45;4.13;;;8.40;99.90;;;;;;5063098;28;20630;-85
2023/03/13 03:07:08;;;;;;;16.02;4.53;;;8.40;99.90;;;;;;5065084;28;20078;-86
2023/03/13 03:09:34;;;;;;;14.48;4.18;;;7.80;99.90;;;;;;5064236;28;20039;-86
2023/03/13 03:11:59;;;;;;;12.02;4.15;;;8.50;99.90;;;;;;5032895;28;20070;-86
2023/03/13 03:14:25;;;;;;;13.30;4.07;;;8.40;99.90;;;;;;5050986;28;20036;-86
2023/03/13 03:16:51;;;;;;;13.65;4.10;;;8.50;99.90;;;;;;5031380;28;20095;-86
2023/03/13 03:19:16;;;;;;;14.00;3.90;;;8.50;99.90;;;;;;5047197;28;20445;-86
2023/03/13 03:21:42;;;;;;;11.98;4.20;;;8.50;99.90;;;;;;5047343;28;20102;-86
2023/03/13 03:24:08;;;;;;;11.57;3.90;;;8.50;99.90;;;;;;5032034;28;20536;-86
2023/03/13 03:26:33;;;;;;;13.77;3.90;;;8.50;99.90;;;;;;5048857;28;20443;-86
2023/03/13 03:28:59;;;;;;;11.38;3.63;;;8.50;99.90;;;;;;5048086;28;20040;-86
2023/03/13 03:31:25;;;;;;;10.43;3.50;;;8.60;99.90;;;;;;5033928;28;20615;-86
2023/03/13 03:33:51;;;;;;;9.25;3.20;;;8.60;99.90;;;;;;5046177;28;20044;-86
2023/03/13 03:36:20;;;;;;;11.18;3.55;;;8.60;99.90;;;;;;5011915;28;20089;-85
2023/03/13 03:38:49;;;;;;;9.43;3.33;;;8.80;99.90;;;;;;5065992;28;20032;-86
2023/03/13 03:41:16;;;;;;;8.05;3.10;;;8.30;99.90;;;;;;5030178;28;20127;-85
2023/03/13 03:43:42;;;;;;;11.05;3.33;;;8.70;99.90;;;;;;5062789;28;20519;-85
2023/03/13 03:46:08;;;;;;;9.75;3.08;;;8.70;99.90;;;;;;5080257;28;20051;-86
2023/03/13 03:48:34;;;;;;;10.07;3.17;;;8.70;99.90;;;;;;5044184;28;20040;-86
2023/03/13 03:51:00;;;;;;;9.75;3.40;;;8.80;99.90;;;;;;5063076;28;20036;-87
2023/03/13 03:53:27;;;;;;;10.15;3.47;;;9.00;99.90;;;;;;5045797;28;20069;-85
2023/03/13 03:55:52;;;;;;;9.98;3.10;;;8.80;99.90;;;;;;5046865;28;20105;-86
2023/03/13 03:58:18;;;;;;;9.15;2.80;;;8.80;99.90;;;;;;5030679;28;20036;-86
2023/03/13 04:00:46;;;;;;;8.23;3.00;;;8.90;99.90;;;;;;5046917;28;20075;-86
2023/03/13 04:03:12;;;;;;;9.90;3.40;;;10.30;99.90;;;;;;5064124;28;20119;-86
2023/03/13 04:05:38;;;;;;;9.00;3.00;;;9.00;99.90;;;;;;5045794;28;20082;-86
2023/03/13 04:08:04;;;;;;;10.02;3.17;;;8.90;99.90;;;;;;5048250;28;20409;-87
2023/03/13 04:10:30;;;;;;;10.40;3.10;;;8.90;99.90;;;;;;5061416;28;20032;-87
2023/03/13 04:12:56;;;;;;;8.60;3.00;;;9.00;99.90;;;;;;5045925;28;20051;-87
2023/03/13 04:15:22;;;;;;;9.02;2.90;;;9.00;99.90;;;;;;5046018;28;20047;-86
2023/03/13 04:17:47;;;;;;;7.53;2.78;;;9.00;99.90;;;;;;5045102;28;20036;-86
2023/03/13 04:20:13;;;;;;;8.40;2.60;;;9.00;99.90;;;;;;5046832;28;20044;-87
2023/03/13 04:22:41;;;;;;;8.90;2.92;;;9.00;99.90;;;;;;5045388;28;20040;-87
2023/03/13 04:25:07;;;;;;;9.45;2.72;;;9.10;99.90;;;;;;5062538;28;20076;-85
2023/03/13 04:27:33;;;;;;;9.07;2.78;;;9.10;99.90;;;;;;5064768;28;20393;-86
2023/03/13 04:29:59;;;;;;;8.02;3.10;;;9.10;99.90;;;;;;5081109;28;20032;-87
2023/03/13 04:32:25;;;;;;;8.27;3.08;;;9.20;99.90;;;;;;5047578;28;20040;-86
2023/03/13 04:34:51;;;;;;;8.40;3.40;;;8.00;99.90;;;;;;5063545;28;20044;-88
2023/03/13 04:37:17;;;;;;;8.70;3.42;;;9.30;99.90;;;;;;5047294;28;20086;-87
2023/03/13 04:39:42;;;;;;;10.00;3.90;;;9.30;99.90;;;;;;5063251;28;20496;-86
2023/03/13 04:42:10;;;;;;;9.57;4.05;;;9.40;99.90;;;;;;5029553;28;20055;-87
2023/03/13 04:44:35;;;;;;;9.45;3.95;;;9.40;99.90;;;;;;5044827;28;20048;-88
2023/03/13 04:47:01;;;;;;;10.80;4.50;;;9.50;99.90;;;;;;5029947;28;20499;-86
2023/03/13 04:49:27;;;;;;;10.98;4.40;;;9.60;99.90;;;;;;5031029;28;20025;-87
2023/03/13 04:51:53;;;;;;;10.00;4.55;;;9.60;99.90;;;;;;5046200;28;20128;-87
2023/03/13 04:54:19;;;;;;;10.15;4.45;;;9.70;99.90;;;;;;5015768;28;20037;-87
2023/03/13 04:56:44;;;;;;;9.43;4.35;;;9.70;99.90;;;;;;5061094;28;20044;-87
2023/03/13 04:59:11;;;;;;;10.10;4.75;;;9.70;99.90;;;;;;5063967;28;21427;-87
2023/03/13 05:01:37;;;;;;;10.88;5.05;;;9.70;99.90;;;;;;5059932;28;20036;-87
2023/03/13 05:04:03;;;;;;;10.27;4.80;;;9.80;99.90;;;;;;5030239;28;20047;-88
2023/03/13 05:06:29;;;;;;;11.45;4.95;;;9.80;99.90;;;;;;5028308;28;20086;-86
2023/03/13 05:08:55;;;;;;;11.80;5.07;;;10.00;99.90;;;;;;5047739;28;20068;-87
2023/03/13 05:11:21;;;;;;;10.35;5.10;;;9.90;99.90;;;;;;5044748;28;20036;-87
2023/03/13 05:13:47;;;;;;;9.88;4.70;;;9.90;99.90;;;;;;5060422;28;20223;-88
2023/03/13 05:16:13;;;;;;;10.88;4.57;;;10.70;99.90;;;;;;5062214;28;20497;-88
2023/03/13 05:18:38;;;;;;;9.82;4.32;;;10.00;99.90;;;;;;5028781;28;20078;-87
2023/03/13 05:21:05;;;;;;;10.75;4.40;;;10.00;99.90;;;;;;5043402;28;20059;-87
2023/03/13 05:23:31;;;;;;;12.45;5.22;;;10.10;99.90;;;;;;5062490;28;20047;-87
2023/03/13 05:25:56;;;;;;;10.07;4.57;;;10.10;99.90;;;;;;5062542;28;20036;-87
2023/03/13 05:28:22;;;;;;;12.85;5.38;;;10.10;99.90;;;;;;5044181;28;20044;-88
2023/03/13 05:30:48;;;;;;;14.85;6.10;;;10.10;99.90;;;;;;5043291;28;20082;-88
2023/03/13 05:33:14;;;;;;;14.20;5.90;;;10.30;99.90;;;;;;5024928;28;20055;-87
2023/03/13 05:35:39;;;;;;;14.02;6.00;;;10.40;99.90;;;;;;5027491;28;20115;-88
2023/03/13 05:38:05;;;;;;;15.38;5.97;;;10.40;99.90;;;;;;5027833;28;20051;-87
2023/03/13 05:40:31;;;;;;;15.85;6.35;;;10.40;99.90;;;;;;5029555;28;20068;-87
2023/03/13 05:42:56;;;;;;;14.32;5.93;;;10.40;99.90;;;;;;5025607;28;20136;-87
2023/03/13 05:45:22;;;;;;;10.43;4.55;;;10.50;99.90;;;;;;5043229;28;20044;-88
2023/03/13 05:47:48;;;;;;;10.48;4.97;;;10.50;99.90;;;;;;5022741;28;20044;-88
2023/03/13 05:50:14;;;;;;;10.95;4.35;;;10.50;99.90;;;;;;5025981;28;20036;-88
2023/03/13 05:52:39;;;;;;;12.82;4.57;;;10.60;99.90;;;;;;5042933;28;20035;-87
2023/03/13 05:55:05;;;;;;;13.95;4.88;;;10.60;99.90;;;;;;5022719;28;20386;-88
2023/03/13 05:57:31;;;;;;;12.80;4.95;;;10.60;99.90;;;;;;5041969;28;20109;-87
2023/03/13 05:59:56;;;;;;;11.45;4.85;;;10.50;99.90;;;;;;5027497;28;20040;-87
2023/03/13 06:02:22;;;;;;;12.00;4.75;;;10.70;99.90;;;;;;5045724;28;20089;-89
2023/03/13 06:04:48;;;;;;;12.73;4.45;;;10.70;99.90;;;;;;5046026;28;20481;-87
2023/03/13 06:07:14;;;;;;;17.15;4.80;;;10.70;99.90;;;;;;5044050;28;20489;-88
2023/03/13 06:09:39;;;;;;;12.95;4.90;;;10.80;99.90;;;;;;5043777;28;20043;-89
2023/03/13 06:12:09;;;;;;;15.48;5.22;;;10.80;99.90;;;;;;5025613;28;20115;-89
2023/03/13 06:14:36;;;;;;;14.13;4.72;;;10.80;99.90;;;;;;5059516;28;21210;-87
2023/03/13 06:17:03;;;;;;;14.18;4.72;;;10.80;99.90;;;;;;5042718;28;20048;-89
2023/03/13 06:19:28;;;;;;;14.90;5.03;;;10.80;99.90;;;;;;5032897;28;20041;-88
2023/03/13 06:21:54;;;;;;;11.27;4.03;;;10.80;99.90;;;;;;5013405;28;20044;-87
2023/03/13 06:24:20;;;;;;;14.60;4.50;;;10.70;99.90;;;;;;5048319;28;20045;-89
2023/03/13 06:26:48;;;;;;;13.27;4.60;;;10.70;99.90;;;;;;5054252;28;20037;-88
2023/03/13 06:29:14;;;;;;;13.02;4.95;;;10.70;99.90;;;;;;5062548;28;20531;-88
2023/03/13 06:31:40;;;;;;;12.55;4.97;;;10.70;99.90;;;;;;5054505;28;20033;-88
2023/03/13 06:34:05;;;;;;;13.25;5.00;;;10.70;99.90;;;;;;5054344;28;20151;-88
2023/03/13 06:36:31;;;;;;;13.73;4.97;;;10.80;99.90;;;;;;5038315;28;20155;-87
2023/03/13 06:38:57;;;;;;;13.30;5.07;;;10.80;99.90;;;;;;5070506;28;20072;-88
2023/03/13 06:41:23;;;;;;;13.57;5.50;;;10.80;99.90;;;;;;5066481;28;20047;-88
2023/03/13 06:43:49;;;;;;;16.90;5.60;;;10.90;99.90;;;;;;5070321;28;20056;-88
2023/03/13 06:46:21;;;;;;;14.10;4.95;;;10.90;99.90;;;;;;5027427;28;20604;-87
2023/03/13 06:48:47;;;;;;;20.75;5.40;;;10.90;99.90;;;;;;5059278;28;20095;-86
2023/03/13 06:51:14;;;;;;;12.50;5.10;;;10.90;99.90;;;;;;5065058;28;20444;-86
2023/03/13 06:53:40;;;;;;;13.32;5.20;;;11.00;99.90;;;;;;5066982;28;20091;-88
2023/03/13 06:56:07;;;;;;;14.75;5.45;;;10.90;99.90;;;;;;5047571;28;20059;-86
2023/03/13 06:58:33;;;;;;;13.65;4.93;;;11.00;99.90;;;;;;5065636;28;20033;-87
2023/03/13 07:01:04;;;;;;;15.60;5.45;;;11.00;99.90;;;;;;5042119;28;20493;-89
2023/03/13 07:03:30;;;;;;;13.93;5.15;;;11.00;99.90;;;;;;5065603;28;20075;-88
2023/03/13 07:05:57;;;;;;;14.30;4.75;;;11.00;99.90;;;;;;5062896;28;20068;-89
2023/03/13 07:08:24;;;;;;;14.25;4.82;;;11.00;99.90;;;;;;5068274;28;20048;-88
2023/03/13 07:10:51;;;;;;;14.73;5.03;;;11.00;99.90;;;;;;5048345;28;20037;-89
2023/03/13 07:13:20;;;;;;;14.40;5.05;;;11.10;99.90;;;;;;5046432;28;20040;-88
2023/03/13 07:15:47;;;;;;;13.35;4.93;;;11.10;99.90;;;;;;5040413;28;20405;-88
2023/03/13 07:18:13;;;;;;;17.48;5.47;;;11.10;99.90;;;;;;5047863;28;20044;-91
2023/03/13 07:20:38;;;;;;;17.10;5.03;;;11.10;99.90;;;;;;5032075;28;20040;-88
2023/03/13 07:23:04;;;;;;;14.70;4.43;;;11.20;99.90;;;;;;5063816;28;20135;-88
2023/03/13 07:25:30;;;;;;;14.38;4.70;;;11.20;99.90;;;;;;5049630;28;20124;-91
2023/03/13 07:27:55;;;;;;;15.27;5.35;;;11.20;99.90;;;;;;5045635;28;20070;-89
2023/03/13 07:30:21;;;;;;;14.75;4.82;;;11.10;99.90;;;;;;5047340;28;20510;-87
2023/03/13 07:32:47;;;;;;;12.98;4.25;;;11.10;99.90;;;;;;5075872;28;20036;-86
2023/03/13 07:35:13;;;;;;;17.02;4.43;;;11.10;99.90;;;;;;5031716;28;20032;-88
2023/03/13 07:37:39;;;;;;;15.23;4.50;;;11.10;99.90;;;;;;5031622;28;20037;-87
2023/03/13 07:40:05;;;;;;;12.30;4.55;;;11.10;99.90;;;;;;5051661;28;20497;-91
2023/03/13 07:42:31;;;;;;;11.63;4.53;;;11.10;99.90;;;;;;5048363;28;20124;-90
2023/03/13 07:44:57;;;;;;;15.95;4.95;;;11.10;99.90;;;;;;5060800;28;20195;-89
2023/03/13 07:47:22;;;;;;;13.70;3.97;;;11.20;99.90;;;;;;5060356;28;20390;-87
2023/03/13 07:49:52;;;;;;;14.30;4.82;;;11.20;99.90;;;;;;5030063;28;20032;-89
2023/03/13 07:52:18;;;;;;;13.00;4.05;;;11.20;99.90;;;;;;5016742;28;20036;-88
2023/03/13 07:54:44;;;;;;;12.27;3.95;;;11.20;99.90;;;;;;5066261;28;20048;-90
2023/03/13 07:57:10;;;;;;;13.15;4.18;;;;;;;;;;5048043;28;20058;-86
2023/03/13 07:59:36;;;;;;;12.63;3.58;;;11.20;99.90;;;;;;5062568;28;20625;-88
2023/03/13 08:02:02;;;;;;;11.55;3.75;;;11.20;99.90;;;;;;5046108;28;20083;-88
2023/03/13 08:04:27;;;;;;;11.65;3.22;;;11.10;99.90;;;;;;5031734;28;20044;-88
2023/03/13 08:06:53;;;;;;;10.85;3.55;;;11.10;99.90;;;;;;5048094;28;20496;-89
2023/03/13 08:09:20;;;;;;;13.60;3.65;;;11.00;99.90;;;;;;5059023;28;20040;-88
2023/03/13 08:11:46;;;;;;;12.40;3.35;;;11.10;99.90;;;;;;5062199;28;20147;-86
2023/03/13 08:14:12;;;;;;;10.90;3.10;;;11.00;99.90;;;;;;5048014;28;20041;-87
2023/03/13 08:16:38;;;;;;;11.02;3.40;;;11.00;99.90;;;;;;5027998;28;20059;-89
2023/03/13 08:19:04;;;;;;;10.65;3.00;;;11.00;99.90;;;;;;5028627;28;20045;-88
2023/03/13 08:21:35;;;;;;;9.73;2.90;;;11.00;99.90;;;;;;5045671;28;20370;-89
2023/03/13 08:24:05;;;;;;;9.98;2.97;;;11.00;99.90;;;;;;5045123;28;20048;-88
2023/03/13 08:26:33;;;;;;;10.32;3.00;;;11.00;99.90;;;;;;5062374;28;20040;-87
2023/03/13 08:29:05;;;;;;;8.35;2.60;;;11.00;99.90;;;;;;5046055;28;20043;-87
2023/03/13 08:31:37;;;;;;;9.63;2.90;;;11.10;99.90;;;;;;5042418;28;20036;-89
2023/03/13 08:34:03;;;;;;;9.00;2.70;;;11.10;99.90;;;;;;5063475;28;20052;-86
2023/03/13 08:36:31;;;;;;;9.73;2.88;;;11.20;99.90;;;;;;5029636;28;20036;-87
2023/03/13 08:38:59;;;;;;;8.43;2.70;;;11.30;99.90;;;;;;5063956;28;20090;-87
2023/03/13 08:41:28;;;;;;;9.73;2.70;;;11.40;99.90;;;;;;5060993;28;20040;-87
2023/03/13 08:43:57;;;;;;;8.88;2.53;;;11.60;99.90;;;;;;5064751;28;20056;-89
2023/03/13 08:46:23;;;;;;;10.43;2.50;;;11.70;99.90;;;;;;5054144;28;20083;-88
2023/03/13 08:48:53;;;;;;;8.57;2.00;;;11.70;99.90;;;;;;5048124;28;20534;-89
2023/03/13 08:51:21;;;;;;;8.35;2.47;;;11.80;99.90;;;;;;5061072;28;20047;-88
2023/03/13 08:53:48;;;;;;;7.93;2.30;;;;;;;;;;5064387;28;20044;-88
2023/03/13 08:56:15;;;;;;;8.63;2.10;;;12.00;99.90;;;;;;5062283;28;20505;-90
2023/03/13 08:58:42;;;;;;;7.85;2.10;;;12.10;99.90;;;;;;5063388;28;20047;-93
2023/03/13 09:01:11;;;;;;;9.75;2.40;;;12.10;99.90;;;;;;5044274;28;20418;-89
2023/03/13 09:03:38;;;;;;;10.55;2.38;;;12.20;99.90;;;;;;5062508;28;20036;-91
2023/03/13 09:06:04;;;;;;;8.10;2.00;;;12.20;99.90;;;;;;5044686;28;20654;-87
2023/03/13 09:08:31;;;;;;;10.18;2.47;;;12.20;99.90;;;;;;5063692;28;20040;-87
2023/03/13 09:10:58;;;;;;;8.57;2.03;;;12.30;99.90;;;;;;5044713;28;20052;-89
2023/03/13 09:13:25;;;;;;;8.45;2.00;;;12.40;99.90;;;;;;5042866;28;20762;-89
2023/03/13 09:15:59;;;;;;;6.32;2.00;;;12.40;99.90;;;;;;5045217;28;20041;-88
2023/03/13 09:18:26;;;;;;;8.82;2.00;;;12.40;99.90;;;;;;5058504;28;20397;-87
2023/03/13 09:20:52;;;;;;;9.70;2.10;;;12.40;99.90;;;;;;5062945;28;20171;-88
2023/03/13 09:23:18;;;;;;;8.05;1.90;;;12.40;99.90;;;;;;5044483;28;20091;-88
2023/03/13 09:25:45;;;;;;;11.15;2.33;;;13.40;99.90;;;;;;5064136;28;20048;-89
2023/03/13 09:28:10;;;;;;;11.15;2.10;;;12.40;99.90;;;;;;5044824;28;20043;-89
2023/03/13 09:30:36;;;;;;;12.35;2.40;;;12.30;99.90;;;;;;5041879;28;20037;-88
2023/03/13 09:33:02;;;;;;;11.02;2.65;;;12.30;99.90;;;;;;5030964;28;20043;-88
2023/03/13 09:35:28;;;;;;;12.85;2.47;;;12.20;99.90;;;;;;5041393;28;20047;-90
2023/03/13 09:37:53;;;;;;;11.00;2.83;;;12.20;99.90;;;;;;5045131;28;20045;-88
2023/03/13 09:40:22;;;;;;;10.57;2.67;;;12.20;99.90;;;;;;5043800;28;20048;-86
2023/03/13 09:42:51;;;;;;;11.88;2.83;;;12.20;99.90;;;;;;5062201;28;20043;-88
2023/03/13 09:45:39;;;;;;;11.02;2.85;;;12.20;99.90;;;;;;5059323;28;20121;-88
2023/03/13 09:48:10;;;;;;;11.43;3.05;;;12.10;99.90;;;;;;5058532;28;20036;-88
2023/03/13 09:50:41;;;;;;;11.43;2.70;;;12.10;99.90;;;;;;5059183;28;20072;-88
2023/03/13 09:53:18;;;;;;;12.32;2.55;;;12.10;99.90;;;;;;5045330;28;20131;-89
2023/03/13 09:55:45;;;;;;;10.57;2.60;;;12.10;99.90;;;;;;5057321;28;20071;-90
2023/03/13 09:58:20;;;;;;;11.15;2.70;;;12.10;99.90;;;;;;5044620;28;20040;-88
2023/03/13 10:01:18;;;;;;;10.43;2.50;;;12.10;99.90;;;;;;5039089;28;20075;-88
2023/03/13 10:03:57;;;;;;;13.40;3.03;;;12.10;99.90;;;;;;5051925;28;20066;-89
2023/03/13 10:06:27;;;;;;;14.48;2.97;;;12.20;99.90;;;;;;5043238;28;20040;-88
2023/03/13 10:08:53;;;;;;;12.77;3.35;;;12.30;99.90;;;;;;5062264;28;20043;-89
2023/03/13 10:11:43;;;;;;;14.77;3.83;;;12.40;99.90;;;;;;5027624;28;20029;-87
2023/03/13 10:14:21;;;;;;;13.15;3.10;;;12.50;99.90;;;;;;5043151;28;20539;-88
2023/03/13 10:17:06;;;;;;;12.93;3.10;;;12.60;99.90;;;;;;5045735;28;20040;-87
2023/03/13 10:19:41;;;;;;;11.73;2.85;;;12.70;99.90;;;;;;5056523;28;20064;-87
2023/03/13 10:22:15;;;;;;;11.82;3.00;;;12.70;99.90;;;;;;5045535;28;20342;-87
2023/03/13 10:25:22;;;;;;;13.57;3.10;;;12.70;99.90;;;;;;5061352;28;20067;-88
2023/03/13 10:27:49;;;;;;;14.57;3.53;;;12.80;99.90;;;;;;4964714;28;20136;-88
2023/03/13 10:30:28;;;;;;;12.95;3.10;;;12.90;99.90;;;;;;4968853;28;20133;-89
2023/03/13 10:33:13;;;;;;;13.18;3.08;;;12.90;99.90;;;;;;5019299;28;20115;-88
2023/03/13 10:35:41;;;;;;;11.55;3.03;;;13.10;99.90;;;;;;5062987;28;20045;-89
2023/03/13 10:38:17;;;;;;;11.63;3.25;;;13.20;99.90;;;;;;5042966;28;20282;-87
2023/03/13 10:40:43;;;;;;;16.33;3.95;;;13.20;99.90;;;;;;5058379;28;20044;-90
2023/03/13 10:43:15;;;;;;;14.88;3.60;;;13.30;99.90;;;;;;5062653;28;20036;-88
2023/03/13 10:45:41;;;;;;;14.80;3.53;;;13.30;99.90;;;;;;5045204;28;20448;-88
2023/03/13 10:48:34;;;;;;;15.10;3.30;;;13.30;99.90;;;;;;5027122;28;20036;-88
2023/03/13 10:51:00;;;;;;;17.77;3.67;;;13.30;99.90;;;;;;5075059;28;20045;-91
2023/03/13 10:53:28;;;;;;;15.98;3.13;;;13.30;99.90;;;;;;5027263;28;20378;-88
2023/03/13 10:56:10;;;;;;;15.52;3.25;;;13.30;99.90;;;;;;5067065;28;20048;-88
2023/03/13 10:58:44;;;;;;;19.00;3.70;;;13.20;99.90;;;;;;5049423;28;20040;-86
2023/03/13 11:01:21;;;;;;;16.80;3.25;;;13.20;99.90;;;;;;5043410;28;20045;-86
2023/03/13 11:03:48;;;;;;;18.23;4.13;;;13.20;99.90;;;;;;5063809;28;20033;-87
2023/03/13 11:06:28;;;;;;;15.48;2.85;;;13.20;99.90;;;;;;5048709;28;20610;-87
2023/03/13 11:09:12;;;;;;;15.27;3.42;;;13.20;99.90;;;;;;5044637;28;20518;-87
2023/03/13 11:11:45;;;;;;;18.13;3.85;;;13.30;99.90;;;;;;5064292;28;20032;-87
2023/03/13 11:14:20;;;;;;;16.35;3.60;;;13.30;99.90;;;;;;5062569;28;20043;-87
2023/03/13 11:16:53;;;;;;;16.55;3.40;;;13.40;99.90;;;;;;5061646;28;20047;-87
2023/03/13 11:19:42;;;;;;;;;;;13.30;99.90;;;;;;5063713;28;20037;-87
2023/03/13 11:22:22;;;;;;;14.70;3.47;;;13.30;99.90;;;;;;5037182;28;19916;-87
2023/03/13 11:25:12;;;;;;;15.63;3.10;;;13.40;99.90;;;;;;5063161;28;20056;-87
2023/03/13 11:27:50;;;;;;;12.13;3.00;;;13.40;99.90;;;;;;5062712;28;20032;-86
2023/03/13 11:30:45;;;;;;;12.90;3.05;;;13.40;99.90;;;;;;5079143;28;20117;-86
2023/03/13 11:33:49;;;;;;;17.42;3.78;;;13.40;99.90;;;;;;5045179;28;20036;-86
2023/03/13 11:36:35;;;;;;;14.85;3.45;;;13.40;99.90;;;;;;5060421;28;20402;-87
2023/03/13 11:39:38;;;;;;;14.63;3.17;;;13.40;99.90;;;;;;5062714;28;20169;-88
2023/03/13 11:42:35;;;;;;;12.52;2.83;;;13.30;99.90;;;;;;5045241;28;20045;-86
2023/03/13 11:45:34;;;;;;;16.42;3.40;;;13.30;99.90;;;;;;5062693;28;20048;-90
2023/03/13 11:48:38;;;;;;;17.00;3.10;;;13.30;99.90;;;;;;5066154;28;20037;-85
2023/03/13 11:51:23;;;;;;;15.15;3.42;;;13.40;99.90;;;;;;5060127;28;20040;-86
2023/03/13 11:53:52;;;;;;;10.50;2.38;;;13.50;99.90;;;;;;5063433;28;20449;-87
2023/03/13 11:56:26;;;;;;;12.40;2.85;;;13.50;99.90;;;;;;5063564;28;20028;-86
2023/03/13 11:59:18;;;;;;;13.82;2.60;;;13.60;99.90;;;;;;5061069;28;20029;-86
2023/03/13 12:02:27;;;;;;;10.05;2.65;;;13.60;99.90;;;;;;5044051;28;20039;-87
2023/03/13 12:04:58;;;;;;;10.15;2.85;;;13.70;99.90;;;;;;5057419;28;20079;-88
2023/03/13 12:07:36;;;;;;;11.25;2.47;;;13.70;99.90;;;;;;5061536;28;20047;-88
2023/03/13 12:10:12;;;;;;;11.82;2.63;;;13.60;99.90;;;;;;5058747;28;20040;-86
2023/03/13 12:12:50;;;;;;;11.13;2.42;;;13.70;99.90;;;;;;5062589;28;20661;-91
2023/03/13 12:15:25;;;;;;;11.13;2.60;;;13.70;99.90;;;;;;5059046;28;20474;-87
2023/03/13 12:17:51;;;;;;;12.25;3.28;;;13.80;99.90;;;;;;5062493;28;20044;-88
2023/03/13 12:20:25;;;;;;;10.18;2.65;;;13.80;99.90;;;;;;5063755;28;20423;-88
2023/03/13 12:23:06;;;;;;;14.05;3.15;;;13.80;99.90;;;;;;5046010;28;20047;-88
2023/03/13 12:26:02;;;;;;;11.98;2.97;;;13.90;99.90;;;;;;5046461;28;20044;-86
2023/03/13 12:28:28;;;;;;;13.70;3.10;;;13.90;99.90;;;;;;5062632;28;20112;-86
2023/03/13 12:31:28;;;;;;;18.35;2.60;;;13.90;99.90;;;;;;5062600;28;20537;-87
2023/03/13 12:33:58;;;;;;;15.55;3.13;;;14.00;99.90;;;;;;5058490;28;20044;-87
2023/03/13 12:36:39;;;;;;;17.70;3.95;;;14.00;99.90;;;;;;5059415;28;20044;-86
2023/03/13 12:39:21;;;;;;;13.23;3.13;;;13.90;99.90;;;;;;5062102;28;20098;-86
2023/03/13 12:42:09;;;;;;;12.57;3.58;;;14.00;99.90;;;;;;5046655;28;20090;-88
2023/03/13 12:44:35;;;;;;;19.55;3.72;;;14.00;99.90;;;;;;5060487;28;20512;-91
2023/03/13 12:47:30;;;;;;;15.30;3.10;;;14.00;99.90;;;;;;5013579;28;20102;-87
2023/03/13 12:50:08;;;;;;;18.05;4.03;;;14.00;99.90;;;;;;5061588;28;20051;-87
2023/03/13 12:52:53;;;;;;;15.27;3.90;;;14.10;99.90;;;;;;5063348;28;20146;-88
2023/03/13 12:55:37;;;;;;;13.80;3.30;;;14.00;99.90;;;;;;5060269;28;20048;-87
2023/03/13 12:58:13;;;;;;;14.27;4.05;;;14.00;99.90;;;;;;5060242;28;20879;-88
2023/03/13 13:00:44;;;;;;;15.43;3.72;;;14.00;99.90;;;;;;5059939;28;20044;-88